Orlando, Florida
Current Conditions -  °F | °C
As of 6:53 PM on Sunday 21 Dec 2014 (Local Time) from KORL Reporting Station
Light Rain Light Rain  
Wind Chill: 67°   Ceiling: 10000
Heat Index: 67°   Visibility: 7mi
Dew Point: 65°   Wind: 12mph
Humidity: 93%   Direction: 120°ESE
Pressure: 30.03"   Gusts: NA
Location:  28.54°N, 81.38°W
Report Text: KORL 212353Z 12010KT 7SM -RA FEW040 BKN100 BKN120 19/18 A3003 RMK AO2 RAB2254 SLP173 P0016 60016 T01940183 10261 20194 50005
Loading
Personal Weather Stations






























Interactive Weather Map New forecast layout! Learn more

10-Day Weather Forecast

Advertisements
Track Severe Weather on mobile